sensor_id;sensor_type;location;lat;lon;timestamp;P1;durP1;ratioP1;P2;durP2;ratioP2
41685;SDS011;27370;42.764;23.432;2022-12-16T00:01:45;732.63;;;114.35;;
41685;SDS011;27370;42.764;23.432;2022-12-16T00:04:10;612.15;;;110.30;;
41685;SDS011;27370;42.764;23.432;2022-12-16T00:06:35;829.90;;;134.20;;
41685;SDS011;27370;42.764;23.432;2022-12-16T00:09:01;750.47;;;120.65;;
41685;SDS011;27370;42.764;23.432;2022-12-16T00:11:26;679.75;;;114.22;;
41685;SDS011;27370;42.764;23.432;2022-12-16T00:13:52;580.78;;;106.15;;
41685;SDS011;27370;42.764;23.432;2022-12-16T00:16:18;506.77;;;94.97;;
41685;SDS011;27370;42.764;23.432;2022-12-16T00:18:44;522.72;;;98.68;;
41685;SDS011;27370;42.764;23.432;2022-12-16T00:21:09;506.42;;;97.38;;
41685;SDS011;27370;42.764;23.432;2022-12-16T00:23:35;577.33;;;110.90;;
41685;SDS011;27370;42.764;23.432;2022-12-16T00:26:03;594.80;;;104.32;;
41685;SDS011;27370;42.764;23.432;2022-12-16T00:28:28;546.35;;;101.68;;
41685;SDS011;27370;42.764;23.432;2022-12-16T00:30:54;600.60;;;109.30;;
41685;SDS011;27370;42.764;23.432;2022-12-16T00:33:20;519.40;;;98.82;;
41685;SDS011;27370;42.764;23.432;2022-12-16T00:35:46;493.13;;;105.22;;
41685;SDS011;27370;42.764;23.432;2022-12-16T00:38:12;618.33;;;114.78;;
41685;SDS011;27370;42.764;23.432;2022-12-16T00:40:38;468.88;;;100.63;;
41685;SDS011;27370;42.764;23.432;2022-12-16T00:43:03;651.05;;;123.88;;
41685;SDS011;27370;42.764;23.432;2022-12-16T00:45:29;579.28;;;117.15;;
41685;SDS011;27370;42.764;23.432;2022-12-16T00:47:54;482.42;;;117.28;;
41685;SDS011;27370;42.764;23.432;2022-12-16T00:50:20;516.65;;;137.82;;
41685;SDS011;27370;42.764;23.432;2022-12-16T00:52:46;565.13;;;129.70;;
41685;SDS011;27370;42.764;23.432;2022-12-16T00:55:11;663.92;;;134.65;;
41685;SDS011;27370;42.764;23.432;2022-12-16T00:57:37;560.40;;;119.63;;
41685;SDS011;27370;42.764;23.432;2022-12-16T01:00:03;623.60;;;130.15;;
41685;SDS011;27370;42.764;23.432;2022-12-16T01:02:29;657.80;;;133.73;;
41685;SDS011;27370;42.764;23.432;2022-12-16T01:04:55;558.05;;;122.60;;
41685;SDS011;27370;42.764;23.432;2022-12-16T01:07:20;505.05;;;113.82;;
41685;SDS011;27370;42.764;23.432;2022-12-16T01:09:45;458.60;;;114.78;;
41685;SDS011;27370;42.764;23.432;2022-12-16T01:12:11;611.17;;;136.18;;
41685;SDS011;27370;42.764;23.432;2022-12-16T01:14:36;670.50;;;151.55;;
41685;SDS011;27370;42.764;23.432;2022-12-16T01:17:01;568.47;;;137.95;;
41685;SDS011;27370;42.764;23.432;2022-12-16T01:19:27;674.50;;;141.13;;
41685;SDS011;27370;42.764;23.432;2022-12-16T01:21:52;616.15;;;134.13;;
41685;SDS011;27370;42.764;23.432;2022-12-16T01:24:17;451.63;;;106.97;;
41685;SDS011;27370;42.764;23.432;2022-12-16T01:26:43;492.10;;;104.47;;
41685;SDS011;27370;42.764;23.432;2022-12-16T01:29:08;419.20;;;99.32;;
41685;SDS011;27370;42.764;23.432;2022-12-16T01:31:33;525.13;;;111.38;;
41685;SDS011;27370;42.764;23.432;2022-12-16T01:33:59;532.90;;;109.07;;
41685;SDS011;27370;42.764;23.432;2022-12-16T01:36:24;432.85;;;101.40;;
41685;SDS011;27370;42.764;23.432;2022-12-16T01:38:50;464.60;;;102.38;;
41685;SDS011;27370;42.764;23.432;2022-12-16T01:41:16;474.70;;;106.60;;
41685;SDS011;27370;42.764;23.432;2022-12-16T01:43:41;489.75;;;117.95;;
41685;SDS011;27370;42.764;23.432;2022-12-16T01:51:06;574.53;;;129.10;;
41685;SDS011;27370;42.764;23.432;2022-12-16T01:53:32;563.65;;;126.95;;
41685;SDS011;27370;42.764;23.432;2022-12-16T01:55:58;402.33;;;107.30;;
41685;SDS011;27370;42.764;23.432;2022-12-16T01:58:27;482.65;;;111.30;;
41685;SDS011;27370;42.764;23.432;2022-12-16T02:00:53;441.40;;;112.65;;
41685;SDS011;27370;42.764;23.432;2022-12-16T02:03:18;402.45;;;102.75;;
41685;SDS011;27370;42.764;23.432;2022-12-16T02:05:44;416.17;;;107.63;;
41685;SDS011;27370;42.764;23.432;2022-12-16T02:15:51;448.45;;;106.78;;
41685;SDS011;27370;42.764;23.432;2022-12-16T02:23:21;462.02;;;92.82;;
41685;SDS011;27370;42.764;23.432;2022-12-16T02:38:55;448.02;;;95.47;;
41685;SDS011;27370;42.764;23.432;2022-12-16T02:41:29;411.88;;;95.35;;
41685;SDS011;27370;42.764;23.432;2022-12-16T02:44:01;407.17;;;90.57;;
41685;SDS011;27370;42.764;23.432;2022-12-16T02:46:29;284.83;;;80.45;;
41685;SDS011;27370;42.764;23.432;2022-12-16T02:48:56;254.20;;;79.88;;
41685;SDS011;27370;42.764;23.432;2022-12-16T02:51:22;358.98;;;89.55;;
41685;SDS011;27370;42.764;23.432;2022-12-16T02:53:48;266.05;;;84.90;;
41685;SDS011;27370;42.764;23.432;2022-12-16T02:58:49;330.50;;;94.82;;
41685;SDS011;27370;42.764;23.432;2022-12-16T03:01:19;289.65;;;87.70;;
41685;SDS011;27370;42.764;23.432;2022-12-16T03:03:50;325.20;;;94.85;;
41685;SDS011;27370;42.764;23.432;2022-12-16T03:06:19;434.35;;;95.75;;
41685;SDS011;27370;42.764;23.432;2022-12-16T03:08:46;224.73;;;68.10;;
41685;SDS011;27370;42.764;23.432;2022-12-16T03:11:14;231.07;;;69.18;;
41685;SDS011;27370;42.764;23.432;2022-12-16T03:13:42;375.75;;;90.95;;
41685;SDS011;27370;42.764;23.432;2022-12-16T03:16:09;417.83;;;96.38;;
41685;SDS011;27370;42.764;23.432;2022-12-16T03:18:37;490.75;;;108.85;;
41685;SDS011;27370;42.764;23.432;2022-12-16T03:21:04;500.40;;;105.65;;
41685;SDS011;27370;42.764;23.432;2022-12-16T03:23:32;429.63;;;105.88;;
41685;SDS011;27370;42.764;23.432;2022-12-16T03:26:05;440.45;;;102.75;;
41685;SDS011;27370;42.764;23.432;2022-12-16T03:28:35;424.75;;;105.25;;
41685;SDS011;27370;42.764;23.432;2022-12-16T03:31:06;472.25;;;105.93;;
41685;SDS011;27370;42.764;23.432;2022-12-16T03:33:34;397.63;;;100.93;;
41685;SDS011;27370;42.764;23.432;2022-12-16T03:36:04;331.95;;;93.93;;
41685;SDS011;27370;42.764;23.432;2022-12-16T03:38:31;378.87;;;96.10;;
41685;SDS011;27370;42.764;23.432;2022-12-16T03:40:57;404.05;;;97.28;;
41685;SDS011;27370;42.764;23.432;2022-12-16T03:43:23;310.05;;;88.18;;
41685;SDS011;27370;42.764;23.432;2022-12-16T03:45:50;230.00;;;82.70;;
41685;SDS011;27370;42.764;23.432;2022-12-16T03:48:16;348.17;;;88.57;;
41685;SDS011;27370;42.764;23.432;2022-12-16T03:50:46;328.20;;;83.55;;
41685;SDS011;27370;42.764;23.432;2022-12-16T03:53:11;442.95;;;96.15;;
41685;SDS011;27370;42.764;23.432;2022-12-16T03:55:37;363.02;;;86.93;;
41685;SDS011;27370;42.764;23.432;2022-12-16T03:58:02;266.73;;;81.53;;
41685;SDS011;27370;42.764;23.432;2022-12-16T04:00:27;212.73;;;74.80;;
41685;SDS011;27370;42.764;23.432;2022-12-16T04:02:54;225.05;;;80.18;;
41685;SDS011;27370;42.764;23.432;2022-12-16T04:05:19;268.58;;;79.90;;
41685;SDS011;27370;42.764;23.432;2022-12-16T04:07:45;277.88;;;85.75;;
41685;SDS011;27370;42.764;23.432;2022-12-16T04:10:10;327.50;;;91.85;;
41685;SDS011;27370;42.764;23.432;2022-12-16T04:12:36;469.85;;;108.13;;
41685;SDS011;27370;42.764;23.432;2022-12-16T04:15:20;380.33;;;98.85;;
41685;SDS011;27370;42.764;23.432;2022-12-16T04:18:04;552.38;;;133.43;;
41685;SDS011;27370;42.764;23.432;2022-12-16T04:20:51;600.83;;;138.27;;
41685;SDS011;27370;42.764;23.432;2022-12-16T04:23:35;472.40;;;135.50;;
41685;SDS011;27370;42.764;23.432;2022-12-16T04:26:21;539.97;;;139.73;;
41685;SDS011;27370;42.764;23.432;2022-12-16T04:28:47;662.70;;;154.55;;
41685;SDS011;27370;42.764;23.432;2022-12-16T04:31:12;500.65;;;140.25;;
41685;SDS011;27370;42.764;23.432;2022-12-16T04:33:37;452.75;;;131.77;;
41685;SDS011;27370;42.764;23.432;2022-12-16T04:36:21;619.85;;;147.68;;
41685;SDS011;27370;42.764;23.432;2022-12-16T04:39:05;513.10;;;137.55;;
41685;SDS011;27370;42.764;23.432;2022-12-16T04:41:52;627.15;;;158.10;;
41685;SDS011;27370;42.764;23.432;2022-12-16T04:44:36;397.58;;;114.25;;
41685;SDS011;27370;42.764;23.432;2022-12-16T04:47:20;423.05;;;108.95;;
41685;SDS011;27370;42.764;23.432;2022-12-16T04:50:04;538.67;;;113.53;;
41685;SDS011;27370;42.764;23.432;2022-12-16T04:52:51;614.05;;;112.78;;
41685;SDS011;27370;42.764;23.432;2022-12-16T04:55:35;556.58;;;95.20;;
41685;SDS011;27370;42.764;23.432;2022-12-16T04:58:19;459.38;;;89.63;;
41685;SDS011;27370;42.764;23.432;2022-12-16T05:01:02;379.42;;;79.03;;
41685;SDS011;27370;42.764;23.432;2022-12-16T05:03:46;399.40;;;87.97;;
41685;SDS011;27370;42.764;23.432;2022-12-16T05:06:30;405.42;;;90.05;;
41685;SDS011;27370;42.764;23.432;2022-12-16T05:09:14;547.65;;;105.00;;
41685;SDS011;27370;42.764;23.432;2022-12-16T05:11:58;441.80;;;92.25;;
41685;SDS011;27370;42.764;23.432;2022-12-16T05:14:42;539.40;;;100.22;;
41685;SDS011;27370;42.764;23.432;2022-12-16T05:17:25;538.13;;;100.82;;
41685;SDS011;27370;42.764;23.432;2022-12-16T05:20:09;477.40;;;97.68;;
41685;SDS011;27370;42.764;23.432;2022-12-16T05:22:56;313.17;;;88.18;;
41685;SDS011;27370;42.764;23.432;2022-12-16T05:25:40;522.90;;;106.25;;
41685;SDS011;27370;42.764;23.432;2022-12-16T05:28:24;263.88;;;84.25;;
41685;SDS011;27370;42.764;23.432;2022-12-16T05:31:08;375.90;;;94.47;;
41685;SDS011;27370;42.764;23.432;2022-12-16T05:33:52;319.25;;;94.85;;
41685;SDS011;27370;42.764;23.432;2022-12-16T05:36:36;271.27;;;92.57;;
41685;SDS011;27370;42.764;23.432;2022-12-16T05:39:20;197.48;;;82.32;;
41685;SDS011;27370;42.764;23.432;2022-12-16T05:42:05;192.10;;;79.70;;
41685;SDS011;27370;42.764;23.432;2022-12-16T05:44:49;152.30;;;71.03;;
41685;SDS011;27370;42.764;23.432;2022-12-16T05:47:32;128.93;;;67.35;;
41685;SDS011;27370;42.764;23.432;2022-12-16T05:50:16;128.85;;;69.28;;
41685;SDS011;27370;42.764;23.432;2022-12-16T05:53:07;141.10;;;74.63;;
41685;SDS011;27370;42.764;23.432;2022-12-16T05:55:51;121.68;;;62.53;;
41685;SDS011;27370;42.764;23.432;2022-12-16T05:58:35;125.90;;;67.80;;
41685;SDS011;27370;42.764;23.432;2022-12-16T06:01:19;114.95;;;60.70;;
41685;SDS011;27370;42.764;23.432;2022-12-16T06:04:03;118.78;;;64.47;;
41685;SDS011;27370;42.764;23.432;2022-12-16T06:06:47;174.95;;;96.35;;
41685;SDS011;27370;42.764;23.432;2022-12-16T06:09:30;212.80;;;111.43;;
41685;SDS011;27370;42.764;23.432;2022-12-16T06:12:14;252.43;;;129.85;;
41685;SDS011;27370;42.764;23.432;2022-12-16T06:14:58;249.95;;;108.55;;
41685;SDS011;27370;42.764;23.432;2022-12-16T06:17:43;234.80;;;101.00;;
41685;SDS011;27370;42.764;23.432;2022-12-16T06:20:30;229.02;;;105.10;;
41685;SDS011;27370;42.764;23.432;2022-12-16T06:23:14;236.55;;;117.28;;
41685;SDS011;27370;42.764;23.432;2022-12-16T06:25:57;227.93;;;118.18;;
41685;SDS011;27370;42.764;23.432;2022-12-16T06:28:41;211.27;;;114.45;;
41685;SDS011;27370;42.764;23.432;2022-12-16T06:31:25;189.63;;;96.13;;
41685;SDS011;27370;42.764;23.432;2022-12-16T06:34:10;172.60;;;92.95;;
41685;SDS011;27370;42.764;23.432;2022-12-16T06:36:58;178.63;;;97.80;;
41685;SDS011;27370;42.764;23.432;2022-12-16T06:39:42;428.08;;;172.23;;
41685;SDS011;27370;42.764;23.432;2022-12-16T06:42:25;329.92;;;102.57;;
41685;SDS011;27370;42.764;23.432;2022-12-16T06:45:09;329.23;;;97.90;;
41685;SDS011;27370;42.764;23.432;2022-12-16T06:47:53;377.75;;;100.60;;
41685;SDS011;27370;42.764;23.432;2022-12-16T06:50:37;437.00;;;102.53;;
41685;SDS011;27370;42.764;23.432;2022-12-16T06:53:21;402.15;;;112.32;;
41685;SDS011;27370;42.764;23.432;2022-12-16T06:56:05;508.05;;;124.18;;
41685;SDS011;27370;42.764;23.432;2022-12-16T06:58:49;265.05;;;100.80;;
41685;SDS011;27370;42.764;23.432;2022-12-16T07:01:33;277.52;;;105.40;;
41685;SDS011;27370;42.764;23.432;2022-12-16T07:04:17;221.27;;;103.70;;
41685;SDS011;27370;42.764;23.432;2022-12-16T07:07:02;197.32;;;93.57;;
41685;SDS011;27370;42.764;23.432;2022-12-16T07:09:46;230.13;;;102.18;;
41685;SDS011;27370;42.764;23.432;2022-12-16T07:12:30;168.45;;;84.90;;
41685;SDS011;27370;42.764;23.432;2022-12-16T07:15:14;336.10;;;142.02;;
41685;SDS011;27370;42.764;23.432;2022-12-16T07:17:58;297.75;;;131.35;;
41685;SDS011;27370;42.764;23.432;2022-12-16T07:20:42;190.07;;;103.38;;
41685;SDS011;27370;42.764;23.432;2022-12-16T07:23:25;190.57;;;99.03;;
41685;SDS011;27370;42.764;23.432;2022-12-16T07:26:09;230.20;;;124.32;;
41685;SDS011;27370;42.764;23.432;2022-12-16T07:28:53;233.80;;;129.73;;
41685;SDS011;27370;42.764;23.432;2022-12-16T07:31:37;260.77;;;133.20;;
41685;SDS011;27370;42.764;23.432;2022-12-16T07:34:20;251.85;;;135.82;;
41685;SDS011;27370;42.764;23.432;2022-12-16T07:37:04;208.43;;;114.43;;
41685;SDS011;27370;42.764;23.432;2022-12-16T07:39:48;173.68;;;103.43;;
41685;SDS011;27370;42.764;23.432;2022-12-16T07:42:32;142.02;;;87.28;;
41685;SDS011;27370;42.764;23.432;2022-12-16T07:45:15;200.82;;;127.75;;
41685;SDS011;27370;42.764;23.432;2022-12-16T07:47:59;174.32;;;115.00;;
41685;SDS011;27370;42.764;23.432;2022-12-16T07:50:43;153.85;;;101.00;;
41685;SDS011;27370;42.764;23.432;2022-12-16T07:53:28;173.40;;;109.13;;
41685;SDS011;27370;42.764;23.432;2022-12-16T07:56:12;160.88;;;104.68;;
41685;SDS011;27370;42.764;23.432;2022-12-16T07:58:56;151.88;;;102.35;;
41685;SDS011;27370;42.764;23.432;2022-12-16T08:01:40;159.07;;;103.80;;
41685;SDS011;27370;42.764;23.432;2022-12-16T08:04:24;155.90;;;101.75;;
41685;SDS011;27370;42.764;23.432;2022-12-16T08:07:08;135.88;;;88.68;;
41685;SDS011;27370;42.764;23.432;2022-12-16T08:09:51;117.10;;;75.78;;
41685;SDS011;27370;42.764;23.432;2022-12-16T08:12:35;115.85;;;73.97;;
41685;SDS011;27370;42.764;23.432;2022-12-16T08:15:19;107.05;;;70.85;;
41685;SDS011;27370;42.764;23.432;2022-12-16T08:18:03;103.03;;;69.13;;
41685;SDS011;27370;42.764;23.432;2022-12-16T08:20:48;112.53;;;77.18;;
41685;SDS011;27370;42.764;23.432;2022-12-16T08:23:31;107.00;;;73.32;;
41685;SDS011;27370;42.764;23.432;2022-12-16T08:26:16;107.60;;;79.40;;
41685;SDS011;27370;42.764;23.432;2022-12-16T08:28:59;118.57;;;86.88;;
41685;SDS011;27370;42.764;23.432;2022-12-16T08:31:43;109.50;;;82.68;;
41685;SDS011;27370;42.764;23.432;2022-12-16T08:34:27;94.40;;;68.68;;
41685;SDS011;27370;42.764;23.432;2022-12-16T08:37:11;87.68;;;65.55;;
41685;SDS011;27370;42.764;23.432;2022-12-16T08:39:55;90.90;;;69.50;;
41685;SDS011;27370;42.764;23.432;2022-12-16T08:42:38;87.15;;;64.97;;
41685;SDS011;27370;42.764;23.432;2022-12-16T08:45:22;77.55;;;58.15;;
41685;SDS011;27370;42.764;23.432;2022-12-16T08:48:07;81.97;;;59.97;;
41685;SDS011;27370;42.764;23.432;2022-12-16T08:50:50;96.03;;;72.47;;
41685;SDS011;27370;42.764;23.432;2022-12-16T08:53:35;77.13;;;56.78;;
41685;SDS011;27370;42.764;23.432;2022-12-16T08:56:19;62.85;;;47.47;;
41685;SDS011;27370;42.764;23.432;2022-12-16T08:59:03;60.55;;;47.47;;
41685;SDS011;27370;42.764;23.432;2022-12-16T09:01:46;53.53;;;40.90;;
41685;SDS011;27370;42.764;23.432;2022-12-16T09:04:30;50.78;;;36.88;;
41685;SDS011;27370;42.764;23.432;2022-12-16T09:07:14;46.50;;;35.10;;
41685;SDS011;27370;42.764;23.432;2022-12-16T09:09:58;45.25;;;35.60;;
41685;SDS011;27370;42.764;23.432;2022-12-16T09:12:42;47.75;;;36.25;;
41685;SDS011;27370;42.764;23.432;2022-12-16T09:15:26;44.85;;;33.85;;
41685;SDS011;27370;42.764;23.432;2022-12-16T09:18:10;39.70;;;30.75;;
41685;SDS011;27370;42.764;23.432;2022-12-16T09:20:53;41.13;;;30.83;;
41685;SDS011;27370;42.764;23.432;2022-12-16T09:23:37;42.10;;;30.23;;
41685;SDS011;27370;42.764;23.432;2022-12-16T09:26:21;45.35;;;35.00;;
41685;SDS011;27370;42.764;23.432;2022-12-16T09:29:05;37.58;;;28.02;;
41685;SDS011;27370;42.764;23.432;2022-12-16T09:31:48;34.92;;;25.27;;
41685;SDS011;27370;42.764;23.432;2022-12-16T09:34:32;29.23;;;20.98;;
41685;SDS011;27370;42.764;23.432;2022-12-16T09:37:16;30.17;;;22.10;;
41685;SDS011;27370;42.764;23.432;2022-12-16T09:40:00;28.73;;;20.63;;
41685;SDS011;27370;42.764;23.432;2022-12-16T09:42:48;30.92;;;20.35;;
41685;SDS011;27370;42.764;23.432;2022-12-16T09:48:29;17.67;;;11.45;;
41685;SDS011;27370;42.764;23.432;2022-12-16T09:51:16;33.28;;;22.95;;
41685;SDS011;27370;42.764;23.432;2022-12-16T09:54:00;27.95;;;18.80;;
41685;SDS011;27370;42.764;23.432;2022-12-16T09:56:44;32.03;;;23.27;;
41685;SDS011;27370;42.764;23.432;2022-12-16T09:59:33;43.55;;;29.27;;
41685;SDS011;27370;42.764;23.432;2022-12-16T10:02:39;15.48;;;9.55;;
41685;SDS011;27370;42.764;23.432;2022-12-16T10:05:28;19.58;;;12.23;;
41685;SDS011;27370;42.764;23.432;2022-12-16T10:08:49;26.52;;;18.67;;
41685;SDS011;27370;42.764;23.432;2022-12-16T10:11:26;34.03;;;24.67;;
41685;SDS011;27370;42.764;23.432;2022-12-16T10:14:16;32.28;;;23.83;;
41685;SDS011;27370;42.764;23.432;2022-12-16T10:20:06;36.65;;;25.00;;
41685;SDS011;27370;42.764;23.432;2022-12-16T10:22:55;33.35;;;23.52;;
41685;SDS011;27370;42.764;23.432;2022-12-16T10:25:45;31.73;;;22.10;;
41685;SDS011;27370;42.764;23.432;2022-12-16T10:28:47;35.92;;;27.52;;
41685;SDS011;27370;42.764;23.432;2022-12-16T10:31:31;27.88;;;20.60;;
41685;SDS011;27370;42.764;23.432;2022-12-16T10:34:20;29.00;;;20.30;;
41685;SDS011;27370;42.764;23.432;2022-12-16T10:37:08;23.05;;;15.35;;
41685;SDS011;27370;42.764;23.432;2022-12-16T10:39:57;21.25;;;14.00;;
41685;SDS011;27370;42.764;23.432;2022-12-16T10:42:48;24.65;;;17.92;;
41685;SDS011;27370;42.764;23.432;2022-12-16T10:45:51;16.63;;;10.13;;
41685;SDS011;27370;42.764;23.432;2022-12-16T10:48:35;13.90;;;8.05;;
41685;SDS011;27370;42.764;23.432;2022-12-16T10:51:20;14.48;;;8.00;;
41685;SDS011;27370;42.764;23.432;2022-12-16T10:54:13;12.38;;;7.50;;
41685;SDS011;27370;42.764;23.432;2022-12-16T10:59:51;14.85;;;8.52;;
41685;SDS011;27370;42.764;23.432;2022-12-16T11:02:50;13.63;;;8.77;;
41685;SDS011;27370;42.764;23.432;2022-12-16T11:05:34;14.50;;;8.00;;
41685;SDS011;27370;42.764;23.432;2022-12-16T11:11:11;14.68;;;8.75;;
41685;SDS011;27370;42.764;23.432;2022-12-16T11:14:07;15.85;;;9.25;;
41685;SDS011;27370;42.764;23.432;2022-12-16T11:17:09;15.82;;;9.98;;
41685;SDS011;27370;42.764;23.432;2022-12-16T11:20:04;15.63;;;9.98;;
41685;SDS011;27370;42.764;23.432;2022-12-16T11:23:06;13.95;;;7.18;;
41685;SDS011;27370;42.764;23.432;2022-12-16T11:26:03;15.25;;;8.50;;
41685;SDS011;27370;42.764;23.432;2022-12-16T11:31:53;12.63;;;7.40;;
41685;SDS011;27370;42.764;23.432;2022-12-16T11:34:38;23.98;;;12.48;;
41685;SDS011;27370;42.764;23.432;2022-12-16T11:37:23;13.07;;;7.93;;
41685;SDS011;27370;42.764;23.432;2022-12-16T11:40:11;14.10;;;8.18;;
41685;SDS011;27370;42.764;23.432;2022-12-16T11:45:40;14.45;;;8.35;;
41685;SDS011;27370;42.764;23.432;2022-12-16T11:48:30;13.38;;;8.18;;
41685;SDS011;27370;42.764;23.432;2022-12-16T11:51:18;12.70;;;6.88;;
41685;SDS011;27370;42.764;23.432;2022-12-16T11:54:16;11.73;;;7.43;;
41685;SDS011;27370;42.764;23.432;2022-12-16T11:57:01;12.82;;;6.78;;
41685;SDS011;27370;42.764;23.432;2022-12-16T12:05:25;11.52;;;6.68;;
41685;SDS011;27370;42.764;23.432;2022-12-16T12:13:59;11.95;;;6.47;;
41685;SDS011;27370;42.764;23.432;2022-12-16T12:16:53;12.80;;;6.60;;
41685;SDS011;27370;42.764;23.432;2022-12-16T12:22:33;10.63;;;6.05;;
41685;SDS011;27370;42.764;23.432;2022-12-16T12:25:30;10.43;;;6.00;;
41685;SDS011;27370;42.764;23.432;2022-12-16T12:28:21;10.60;;;5.68;;
41685;SDS011;27370;42.764;23.432;2022-12-16T12:31:13;12.23;;;6.18;;
41685;SDS011;27370;42.764;23.432;2022-12-16T12:34:08;11.07;;;6.50;;
41685;SDS011;27370;42.764;23.432;2022-12-16T12:36:56;12.57;;;6.45;;
41685;SDS011;27370;42.764;23.432;2022-12-16T12:39:49;9.10;;;5.20;;
41685;SDS011;27370;42.764;23.432;2022-12-16T12:42:38;12.02;;;5.97;;
41685;SDS011;27370;42.764;23.432;2022-12-16T12:45:33;11.18;;;5.22;;
41685;SDS011;27370;42.764;23.432;2022-12-16T12:48:32;11.35;;;6.03;;
41685;SDS011;27370;42.764;23.432;2022-12-16T12:51:22;10.88;;;5.97;;
41685;SDS011;27370;42.764;23.432;2022-12-16T12:54:18;12.73;;;6.45;;
41685;SDS011;27370;42.764;23.432;2022-12-16T12:57:04;11.82;;;6.07;;
41685;SDS011;27370;42.764;23.432;2022-12-16T12:59:56;11.55;;;6.60;;
41685;SDS011;27370;42.764;23.432;2022-12-16T13:05:44;14.63;;;6.85;;
41685;SDS011;27370;42.764;23.432;2022-12-16T13:11:18;12.02;;;7.15;;
41685;SDS011;27370;42.764;23.432;2022-12-16T13:14:07;12.95;;;6.97;;
41685;SDS011;27370;42.764;23.432;2022-12-16T13:17:10;13.23;;;6.82;;
41685;SDS011;27370;42.764;23.432;2022-12-16T13:19:54;13.90;;;7.88;;
41685;SDS011;27370;42.764;23.432;2022-12-16T13:22:38;11.57;;;6.68;;
41685;SDS011;27370;42.764;23.432;2022-12-16T13:28:19;20.33;;;13.38;;
41685;SDS011;27370;42.764;23.432;2022-12-16T13:31:03;14.82;;;6.75;;
41685;SDS011;27370;42.764;23.432;2022-12-16T13:33:50;16.20;;;9.07;;
41685;SDS011;27370;42.764;23.432;2022-12-16T13:36:35;12.32;;;7.43;;
41685;SDS011;27370;42.764;23.432;2022-12-16T13:42:29;15.15;;;8.90;;
41685;SDS011;27370;42.764;23.432;2022-12-16T13:45:30;14.20;;;7.97;;
41685;SDS011;27370;42.764;23.432;2022-12-16T13:48:24;12.55;;;7.47;;
41685;SDS011;27370;42.764;23.432;2022-12-16T13:51:11;14.23;;;8.63;;
41685;SDS011;27370;42.764;23.432;2022-12-16T13:54:14;14.40;;;8.10;;
41685;SDS011;27370;42.764;23.432;2022-12-16T13:56:58;13.57;;;7.75;;
41685;SDS011;27370;42.764;23.432;2022-12-16T13:59:43;12.10;;;7.10;;
41685;SDS011;27370;42.764;23.432;2022-12-16T14:02:38;15.95;;;9.40;;
41685;SDS011;27370;42.764;23.432;2022-12-16T14:08:08;15.05;;;8.60;;
41685;SDS011;27370;42.764;23.432;2022-12-16T14:10:58;15.38;;;9.23;;
41685;SDS011;27370;42.764;23.432;2022-12-16T14:21:58;16.83;;;8.38;;
41685;SDS011;27370;42.764;23.432;2022-12-16T14:24:43;14.93;;;8.60;;
41685;SDS011;27370;42.764;23.432;2022-12-16T14:27:28;14.15;;;9.18;;
41685;SDS011;27370;42.764;23.432;2022-12-16T14:30:17;13.25;;;7.80;;
41685;SDS011;27370;42.764;23.432;2022-12-16T14:33:14;13.70;;;7.82;;
41685;SDS011;27370;42.764;23.432;2022-12-16T14:35:58;14.30;;;7.43;;
41685;SDS011;27370;42.764;23.432;2022-12-16T14:38:45;15.73;;;7.90;;
41685;SDS011;27370;42.764;23.432;2022-12-16T14:41:30;13.93;;;7.78;;
41685;SDS011;27370;42.764;23.432;2022-12-16T14:44:21;13.20;;;7.65;;
41685;SDS011;27370;42.764;23.432;2022-12-16T14:47:10;14.95;;;6.78;;
41685;SDS011;27370;42.764;23.432;2022-12-16T14:49:58;13.15;;;7.10;;
41685;SDS011;27370;42.764;23.432;2022-12-16T14:52:42;12.63;;;7.72;;
41685;SDS011;27370;42.764;23.432;2022-12-16T14:58:17;13.98;;;7.90;;
41685;SDS011;27370;42.764;23.432;2022-12-16T15:01:10;15.38;;;8.38;;
41685;SDS011;27370;42.764;23.432;2022-12-16T15:03:55;12.10;;;7.32;;
41685;SDS011;27370;42.764;23.432;2022-12-16T15:06:40;14.50;;;7.93;;
41685;SDS011;27370;42.764;23.432;2022-12-16T15:09:29;12.68;;;7.30;;
41685;SDS011;27370;42.764;23.432;2022-12-16T15:12:15;16.38;;;9.93;;
41685;SDS011;27370;42.764;23.432;2022-12-16T15:14:59;12.60;;;7.22;;
41685;SDS011;27370;42.764;23.432;2022-12-16T15:17:48;15.15;;;7.93;;
41685;SDS011;27370;42.764;23.432;2022-12-16T15:20:33;16.00;;;9.27;;
41685;SDS011;27370;42.764;23.432;2022-12-16T15:23:23;16.83;;;10.27;;
41685;SDS011;27370;42.764;23.432;2022-12-16T15:26:07;13.05;;;7.13;;
41685;SDS011;27370;42.764;23.432;2022-12-16T15:28:51;17.95;;;9.15;;
41685;SDS011;27370;42.764;23.432;2022-12-16T15:31:36;16.58;;;8.82;;
41685;SDS011;27370;42.764;23.432;2022-12-16T15:37:18;15.77;;;10.00;;
41685;SDS011;27370;42.764;23.432;2022-12-16T15:40:04;16.58;;;9.30;;
41685;SDS011;27370;42.764;23.432;2022-12-16T15:43:00;19.50;;;9.73;;
41685;SDS011;27370;42.764;23.432;2022-12-16T15:45:46;15.63;;;9.55;;
41685;SDS011;27370;42.764;23.432;2022-12-16T15:48:30;15.88;;;10.05;;
41685;SDS011;27370;42.764;23.432;2022-12-16T15:51:22;16.58;;;10.65;;
41685;SDS011;27370;42.764;23.432;2022-12-16T15:54:19;18.13;;;9.80;;
41685;SDS011;27370;42.764;23.432;2022-12-16T16:03:02;18.52;;;9.98;;
41685;SDS011;27370;42.764;23.432;2022-12-16T16:05:47;19.17;;;11.55;;
41685;SDS011;27370;42.764;23.432;2022-12-16T16:08:30;15.52;;;9.02;;
41685;SDS011;27370;42.764;23.432;2022-12-16T16:11:14;22.13;;;14.73;;
41685;SDS011;27370;42.764;23.432;2022-12-16T16:13:58;16.95;;;11.10;;
41685;SDS011;27370;42.764;23.432;2022-12-16T16:16:45;15.40;;;8.32;;
41685;SDS011;27370;42.764;23.432;2022-12-16T16:19:29;19.70;;;15.38;;
41685;SDS011;27370;42.764;23.432;2022-12-16T16:22:14;47.35;;;42.20;;
41685;SDS011;27370;42.764;23.432;2022-12-16T16:24:58;16.02;;;10.55;;
41685;SDS011;27370;42.764;23.432;2022-12-16T16:27:42;18.13;;;10.25;;
41685;SDS011;27370;42.764;23.432;2022-12-16T16:30:26;15.60;;;8.57;;
41685;SDS011;27370;42.764;23.432;2022-12-16T16:33:09;15.55;;;9.32;;
41685;SDS011;27370;42.764;23.432;2022-12-16T16:35:53;15.88;;;10.00;;
41685;SDS011;27370;42.764;23.432;2022-12-16T16:38:37;15.18;;;8.43;;
41685;SDS011;27370;42.764;23.432;2022-12-16T16:41:23;15.00;;;8.93;;
41685;SDS011;27370;42.764;23.432;2022-12-16T16:44:07;15.43;;;8.63;;
41685;SDS011;27370;42.764;23.432;2022-12-16T16:46:51;17.27;;;9.73;;
41685;SDS011;27370;42.764;23.432;2022-12-16T16:49:45;16.02;;;9.57;;
41685;SDS011;27370;42.764;23.432;2022-12-16T16:52:29;16.13;;;9.35;;
41685;SDS011;27370;42.764;23.432;2022-12-16T16:55:14;13.98;;;8.63;;
41685;SDS011;27370;42.764;23.432;2022-12-16T16:58:05;14.05;;;7.10;;
41685;SDS011;27370;42.764;23.432;2022-12-16T17:00:50;16.35;;;9.88;;